sensor_id;sensor_type;location;lat;lon;timestamp;temperature;humidity
20102;DHT22;10210;52.284;9.892;2023-04-01T00:01:01;13.20;99.90
20102;DHT22;10210;52.284;9.892;2023-04-01T00:03:28;13.20;99.90
20102;DHT22;10210;52.284;9.892;2023-04-01T00:05:56;13.10;99.90
20102;DHT22;10210;52.284;9.892;2023-04-01T00:08:24;13.10;99.90
20102;DHT22;10210;52.284;9.892;2023-04-01T00:10:51;13.10;99.90
20102;DHT22;10210;52.284;9.892;2023-04-01T00:13:18;13.10;99.90
20102;DHT22;10210;52.284;9.892;2023-04-01T00:15:45;13.10;99.90
20102;DHT22;10210;52.284;9.892;2023-04-01T00:18:11;13.00;99.90
20102;DHT22;10210;52.284;9.892;2023-04-01T00:20:37;13.00;99.90
20102;DHT22;10210;52.284;9.892;2023-04-01T00:23:03;13.00;99.90
20102;DHT22;10210;52.284;9.892;2023-04-01T00:25:30;13.00;99.90
20102;DHT22;10210;52.284;9.892;2023-04-01T00:27:56;13.00;99.90
20102;DHT22;10210;52.284;9.892;2023-04-01T00:30:22;13.10;99.90
20102;DHT22;10210;52.284;9.892;2023-04-01T00:32:51;13.10;99.90
20102;DHT22;10210;52.284;9.892;2023-04-01T00:35:18;13.00;99.90
20102;DHT22;10210;52.284;9.892;2023-04-01T00:37:44;13.00;99.90
20102;DHT22;10210;52.284;9.892;2023-04-01T00:40:27;13.00;99.90
20102;DHT22;10210;52.284;9.892;2023-04-01T00:42:55;13.00;99.90
20102;DHT22;10210;52.284;9.892;2023-04-01T00:45:25;13.00;99.90
20102;DHT22;10210;52.284;9.892;2023-04-01T00:47:55;13.00;99.90
20102;DHT22;10210;52.284;9.892;2023-04-01T00:50:23;13.00;99.90
20102;DHT22;10210;52.284;9.892;2023-04-01T00:52:51;13.00;99.90
20102;DHT22;10210;52.284;9.892;2023-04-01T00:55:18;13.00;99.90
20102;DHT22;10210;52.284;9.892;2023-04-01T00:57:47;13.00;99.90
20102;DHT22;10210;52.284;9.892;2023-04-01T01:00:16;13.00;99.90
20102;DHT22;10210;52.284;9.892;2023-04-01T01:02:45;13.00;99.90
20102;DHT22;10210;52.284;9.892;2023-04-01T01:05:15;13.00;99.90
20102;DHT22;10210;52.284;9.892;2023-04-01T01:08:09;12.90;99.90
20102;DHT22;10210;52.284;9.892;2023-04-01T01:10:49;13.00;99.90
20102;DHT22;10210;52.284;9.892;2023-04-01T01:13:24;13.00;99.90
20102;DHT22;10210;52.284;9.892;2023-04-01T01:16:34;13.00;99.90
20102;DHT22;10210;52.284;9.892;2023-04-01T01:19:07;12.90;99.90
20102;DHT22;10210;52.284;9.892;2023-04-01T01:22:15;12.90;99.90
20102;DHT22;10210;52.284;9.892;2023-04-01T01:25:39;12.90;99.90
20102;DHT22;10210;52.284;9.892;2023-04-01T01:34:06;12.90;99.90
20102;DHT22;10210;52.284;9.892;2023-04-01T01:36:58;12.90;99.90
20102;DHT22;10210;52.284;9.892;2023-04-01T01:39:31;12.90;99.90
20102;DHT22;10210;52.284;9.892;2023-04-01T01:42:04;12.90;99.90
20102;DHT22;10210;52.284;9.892;2023-04-01T01:44:33;12.90;99.90
20102;DHT22;10210;52.284;9.892;2023-04-01T01:47:01;12.90;99.90
20102;DHT22;10210;52.284;9.892;2023-04-01T01:49:28;12.90;99.90
20102;DHT22;10210;52.284;9.892;2023-04-01T01:51:57;12.90;99.90
20102;DHT22;10210;52.284;9.892;2023-04-01T01:54:23;12.80;99.90
20102;DHT22;10210;52.284;9.892;2023-04-01T01:56:52;12.90;99.90
20102;DHT22;10210;52.284;9.892;2023-04-01T01:59:33;12.80;99.90
20102;DHT22;10210;52.284;9.892;2023-04-01T02:02:04;12.90;99.90
20102;DHT22;10210;52.284;9.892;2023-04-01T02:04:35;12.90;99.90
20102;DHT22;10210;52.284;9.892;2023-04-01T02:07:10;12.90;99.90
20102;DHT22;10210;52.284;9.892;2023-04-01T02:09:41;12.90;99.90
20102;DHT22;10210;52.284;9.892;2023-04-01T02:12:09;12.80;99.90
20102;DHT22;10210;52.284;9.892;2023-04-01T02:17:43;12.80;99.90
20102;DHT22;10210;52.284;9.892;2023-04-01T02:20:15;12.80;99.90
20102;DHT22;10210;52.284;9.892;2023-04-01T02:22:48;12.80;99.90
20102;DHT22;10210;52.284;9.892;2023-04-01T02:25:20;12.80;99.90
20102;DHT22;10210;52.284;9.892;2023-04-01T02:27:50;12.80;99.90
20102;DHT22;10210;52.284;9.892;2023-04-01T02:30:18;12.80;99.90
20102;DHT22;10210;52.284;9.892;2023-04-01T02:32:44;12.80;99.90
20102;DHT22;10210;52.284;9.892;2023-04-01T02:35:13;12.70;99.90
20102;DHT22;10210;52.284;9.892;2023-04-01T02:37:44;12.70;99.90
20102;DHT22;10210;52.284;9.892;2023-04-01T02:40:15;12.80;99.90
20102;DHT22;10210;52.284;9.892;2023-04-01T02:42:41;12.80;99.90
20102;DHT22;10210;52.284;9.892;2023-04-01T02:45:08;12.70;99.90
20102;DHT22;10210;52.284;9.892;2023-04-01T02:47:34;12.70;99.90
20102;DHT22;10210;52.284;9.892;2023-04-01T02:50:00;12.70;99.90
20102;DHT22;10210;52.284;9.892;2023-04-01T02:52:29;12.70;99.90
20102;DHT22;10210;52.284;9.892;2023-04-01T02:54:56;12.70;99.90
20102;DHT22;10210;52.284;9.892;2023-04-01T02:57:22;12.60;99.90
20102;DHT22;10210;52.284;9.892;2023-04-01T02:59:48;12.60;99.90
20102;DHT22;10210;52.284;9.892;2023-04-01T03:02:14;12.60;99.90
20102;DHT22;10210;52.284;9.892;2023-04-01T03:04:40;12.50;99.90
20102;DHT22;10210;52.284;9.892;2023-04-01T03:07:06;12.50;99.90
20102;DHT22;10210;52.284;9.892;2023-04-01T03:09:32;12.50;99.90
20102;DHT22;10210;52.284;9.892;2023-04-01T03:11:57;12.40;99.90
20102;DHT22;10210;52.284;9.892;2023-04-01T03:14:23;12.40;99.90
20102;DHT22;10210;52.284;9.892;2023-04-01T03:16:49;12.40;99.90
20102;DHT22;10210;52.284;9.892;2023-04-01T03:19:14;12.40;99.90
20102;DHT22;10210;52.284;9.892;2023-04-01T03:21:40;12.40;99.90
20102;DHT22;10210;52.284;9.892;2023-04-01T03:24:06;12.40;99.90
20102;DHT22;10210;52.284;9.892;2023-04-01T03:26:33;12.40;99.90
20102;DHT22;10210;52.284;9.892;2023-04-01T03:28:58;12.40;99.90
20102;DHT22;10210;52.284;9.892;2023-04-01T03:31:24;12.40;99.90
20102;DHT22;10210;52.284;9.892;2023-04-01T03:33:51;12.40;99.90
20102;DHT22;10210;52.284;9.892;2023-04-01T03:36:17;12.40;99.90
20102;DHT22;10210;52.284;9.892;2023-04-01T03:38:43;12.40;99.90
20102;DHT22;10210;52.284;9.892;2023-04-01T03:41:17;12.40;99.90
20102;DHT22;10210;52.284;9.892;2023-04-01T03:43:43;12.40;99.90
20102;DHT22;10210;52.284;9.892;2023-04-01T03:46:09;12.40;99.90
20102;DHT22;10210;52.284;9.892;2023-04-01T03:48:35;12.50;99.90
20102;DHT22;10210;52.284;9.892;2023-04-01T03:51:05;12.40;99.90
20102;DHT22;10210;52.284;9.892;2023-04-01T03:53:32;12.40;99.90
20102;DHT22;10210;52.284;9.892;2023-04-01T03:55:57;12.40;99.90
20102;DHT22;10210;52.284;9.892;2023-04-01T03:58:23;12.40;99.90
20102;DHT22;10210;52.284;9.892;2023-04-01T04:00:48;12.40;99.90
20102;DHT22;10210;52.284;9.892;2023-04-01T04:03:14;12.40;99.90
20102;DHT22;10210;52.284;9.892;2023-04-01T04:05:49;12.40;99.90
20102;DHT22;10210;52.284;9.892;2023-04-01T04:08:15;12.40;99.90
20102;DHT22;10210;52.284;9.892;2023-04-01T04:10:41;12.40;99.90
20102;DHT22;10210;52.284;9.892;2023-04-01T04:13:08;12.40;99.90
20102;DHT22;10210;52.284;9.892;2023-04-01T04:15:34;12.30;99.90
20102;DHT22;10210;52.284;9.892;2023-04-01T04:17:59;12.30;99.90
20102;DHT22;10210;52.284;9.892;2023-04-01T04:20:25;12.30;99.90
20102;DHT22;10210;52.284;9.892;2023-04-01T04:22:51;12.30;99.90
20102;DHT22;10210;52.284;9.892;2023-04-01T04:25:17;12.30;99.90
20102;DHT22;10210;52.284;9.892;2023-04-01T04:27:42;12.30;99.90
20102;DHT22;10210;52.284;9.892;2023-04-01T04:30:09;12.30;99.90
20102;DHT22;10210;52.284;9.892;2023-04-01T04:32:35;12.30;99.90
20102;DHT22;10210;52.284;9.892;2023-04-01T04:35:01;12.40;99.90
20102;DHT22;10210;52.284;9.892;2023-04-01T04:37:31;12.40;99.90
20102;DHT22;10210;52.284;9.892;2023-04-01T04:39:57;12.30;99.90
20102;DHT22;10210;52.284;9.892;2023-04-01T04:42:23;12.40;99.90
20102;DHT22;10210;52.284;9.892;2023-04-01T04:44:48;12.40;99.90
20102;DHT22;10210;52.284;9.892;2023-04-01T04:47:14;12.40;99.90
20102;DHT22;10210;52.284;9.892;2023-04-01T04:49:40;12.40;99.90
20102;DHT22;10210;52.284;9.892;2023-04-01T04:52:05;12.40;99.90
20102;DHT22;10210;52.284;9.892;2023-04-01T04:54:31;12.40;99.90
20102;DHT22;10210;52.284;9.892;2023-04-01T04:56:57;12.40;99.90
20102;DHT22;10210;52.284;9.892;2023-04-01T04:59:22;12.40;99.90
20102;DHT22;10210;52.284;9.892;2023-04-01T05:01:48;12.40;99.90
20102;DHT22;10210;52.284;9.892;2023-04-01T05:04:13;12.40;99.90
20102;DHT22;10210;52.284;9.892;2023-04-01T05:06:39;12.40;99.90
20102;DHT22;10210;52.284;9.892;2023-04-01T05:09:05;12.40;99.90
20102;DHT22;10210;52.284;9.892;2023-04-01T05:11:31;12.40;99.90
20102;DHT22;10210;52.284;9.892;2023-04-01T05:13:56;12.40;99.90
20102;DHT22;10210;52.284;9.892;2023-04-01T05:16:22;12.40;99.90
20102;DHT22;10210;52.284;9.892;2023-04-01T05:18:48;12.40;99.90
20102;DHT22;10210;52.284;9.892;2023-04-01T05:21:14;12.40;99.90
20102;DHT22;10210;52.284;9.892;2023-04-01T05:23:41;12.40;99.90
20102;DHT22;10210;52.284;9.892;2023-04-01T05:26:09;12.40;99.90
20102;DHT22;10210;52.284;9.892;2023-04-01T05:28:36;12.40;99.90
20102;DHT22;10210;52.284;9.892;2023-04-01T05:31:04;12.40;99.90
20102;DHT22;10210;52.284;9.892;2023-04-01T05:33:30;12.40;99.90
20102;DHT22;10210;52.284;9.892;2023-04-01T05:35:57;12.40;99.90
20102;DHT22;10210;52.284;9.892;2023-04-01T05:38:34;12.40;99.90
20102;DHT22;10210;52.284;9.892;2023-04-01T05:41:01;12.40;99.90
20102;DHT22;10210;52.284;9.892;2023-04-01T05:43:29;12.40;99.90
20102;DHT22;10210;52.284;9.892;2023-04-01T05:45:55;12.40;99.90
20102;DHT22;10210;52.284;9.892;2023-04-01T05:48:21;12.40;99.90
20102;DHT22;10210;52.284;9.892;2023-04-01T05:50:47;12.40;99.90
20102;DHT22;10210;52.284;9.892;2023-04-01T05:53:13;12.40;99.90
20102;DHT22;10210;52.284;9.892;2023-04-01T05:55:39;12.40;99.90
20102;DHT22;10210;52.284;9.892;2023-04-01T05:58:04;12.40;99.90
20102;DHT22;10210;52.284;9.892;2023-04-01T06:00:30;12.40;99.90
20102;DHT22;10210;52.284;9.892;2023-04-01T06:03:01;12.40;99.90
20102;DHT22;10210;52.284;9.892;2023-04-01T06:05:29;12.40;99.90
20102;DHT22;10210;52.284;9.892;2023-04-01T06:08:01;12.40;99.90
20102;DHT22;10210;52.284;9.892;2023-04-01T06:10:53;12.40;99.90
20102;DHT22;10210;52.284;9.892;2023-04-01T06:14:01;12.50;99.90
20102;DHT22;10210;52.284;9.892;2023-04-01T06:16:43;12.50;99.90
20102;DHT22;10210;52.284;9.892;2023-04-01T06:34:45;12.60;99.90
20102;DHT22;10210;52.284;9.892;2023-04-01T06:40:13;12.70;99.90
20102;DHT22;10210;52.284;9.892;2023-04-01T06:52:33;12.70;99.90
20102;DHT22;10210;52.284;9.892;2023-04-01T06:57:59;12.80;99.90
20102;DHT22;10210;52.284;9.892;2023-04-01T07:00:37;12.80;99.90
20102;DHT22;10210;52.284;9.892;2023-04-01T07:03:23;12.80;99.90
20102;DHT22;10210;52.284;9.892;2023-04-01T07:06:01;12.80;99.90
20102;DHT22;10210;52.284;9.892;2023-04-01T07:08:31;12.80;99.90
20102;DHT22;10210;52.284;9.892;2023-04-01T07:11:04;12.80;99.90
20102;DHT22;10210;52.284;9.892;2023-04-01T07:13:57;12.80;99.90
20102;DHT22;10210;52.284;9.892;2023-04-01T07:16:32;12.90;99.90
20102;DHT22;10210;52.284;9.892;2023-04-01T07:22:05;12.90;99.90
20102;DHT22;10210;52.284;9.892;2023-04-01T07:24:41;13.00;99.90
20102;DHT22;10210;52.284;9.892;2023-04-01T07:27:12;13.00;99.90
20102;DHT22;10210;52.284;9.892;2023-04-01T07:29:39;13.00;99.90
20102;DHT22;10210;52.284;9.892;2023-04-01T07:32:17;13.10;99.90
20102;DHT22;10210;52.284;9.892;2023-04-01T07:44:29;13.30;99.90
20102;DHT22;10210;52.284;9.892;2023-04-01T07:47:39;13.30;99.90
20102;DHT22;10210;52.284;9.892;2023-04-01T07:50:28;13.30;99.90
20102;DHT22;10210;52.284;9.892;2023-04-01T07:55:45;13.40;99.90
20102;DHT22;10210;52.284;9.892;2023-04-01T07:58:37;13.30;99.90
20102;DHT22;10210;52.284;9.892;2023-04-01T08:07:07;13.40;99.90
20102;DHT22;10210;52.284;9.892;2023-04-01T08:09:54;13.40;99.90
20102;DHT22;10210;52.284;9.892;2023-04-01T08:15:21;13.50;99.90
20102;DHT22;10210;52.284;9.892;2023-04-01T08:20:47;13.50;99.90
20102;DHT22;10210;52.284;9.892;2023-04-01T08:23:20;13.50;99.90
20102;DHT22;10210;52.284;9.892;2023-04-01T08:26:02;13.50;99.90
20102;DHT22;10210;52.284;9.892;2023-04-01T08:28:57;13.70;99.90
20102;DHT22;10210;52.284;9.892;2023-04-01T08:31:40;13.70;99.90
20102;DHT22;10210;52.284;9.892;2023-04-01T08:34:24;13.90;99.90
20102;DHT22;10210;52.284;9.892;2023-04-01T08:37:17;14.00;99.90
20102;DHT22;10210;52.284;9.892;2023-04-01T08:39:54;14.20;99.90
20102;DHT22;10210;52.284;9.892;2023-04-01T08:48:19;14.50;99.90
20102;DHT22;10210;52.284;9.892;2023-04-01T08:51:15;14.50;99.90
20102;DHT22;10210;52.284;9.892;2023-04-01T08:57:09;14.60;99.90
20102;DHT22;10210;52.284;9.892;2023-04-01T09:03:17;14.60;99.90
20102;DHT22;10210;52.284;9.892;2023-04-01T09:06:21;14.60;99.90
20102;DHT22;10210;52.284;9.892;2023-04-01T09:18:01;14.60;99.90
20102;DHT22;10210;52.284;9.892;2023-04-01T09:20:45;14.50;99.90
20102;DHT22;10210;52.284;9.892;2023-04-01T09:34:49;14.70;99.90
20102;DHT22;10210;52.284;9.892;2023-04-01T09:40:31;14.80;99.90
20102;DHT22;10210;52.284;9.892;2023-04-01T09:49:24;14.80;99.90
20102;DHT22;10210;52.284;9.892;2023-04-01T09:58:20;14.80;99.90
20102;DHT22;10210;52.284;9.892;2023-04-01T10:01:37;14.80;99.90
20102;DHT22;10210;52.284;9.892;2023-04-01T10:04:49;14.70;99.90
20102;DHT22;10210;52.284;9.892;2023-04-01T10:08:12;14.70;99.90
20102;DHT22;10210;52.284;9.892;2023-04-01T10:14:19;14.60;99.90
20102;DHT22;10210;52.284;9.892;2023-04-01T10:23:00;14.60;99.90
20102;DHT22;10210;52.284;9.892;2023-04-01T10:26:07;14.50;99.90
20102;DHT22;10210;52.284;9.892;2023-04-01T10:45:09;14.40;99.90
20102;DHT22;10210;52.284;9.892;2023-04-01T10:54:19;14.30;99.90
20102;DHT22;10210;52.284;9.892;2023-04-01T10:57:23;14.40;99.90
20102;DHT22;10210;52.284;9.892;2023-04-01T11:09:51;14.80;99.90
20102;DHT22;10210;52.284;9.892;2023-04-01T11:12:44;14.90;99.90
20102;DHT22;10210;52.284;9.892;2023-04-01T11:18:16;15.10;99.90
20102;DHT22;10210;52.284;9.892;2023-04-01T11:32:52;15.20;99.90
20102;DHT22;10210;52.284;9.892;2023-04-01T11:47:53;15.20;99.90
20102;DHT22;10210;52.284;9.892;2023-04-01T11:54:07;15.20;99.90
20102;DHT22;10210;52.284;9.892;2023-04-01T12:09:20;15.20;99.90
20102;DHT22;10210;52.284;9.892;2023-04-01T12:12:29;15.20;99.90
20102;DHT22;10210;52.284;9.892;2023-04-01T12:18:53;15.30;99.90
20102;DHT22;10210;52.284;9.892;2023-04-01T12:21:38;15.30;99.90
20102;DHT22;10210;52.284;9.892;2023-04-01T12:24:54;15.40;99.90
20102;DHT22;10210;52.284;9.892;2023-04-01T12:31:12;15.40;99.90
20102;DHT22;10210;52.284;9.892;2023-04-01T12:42:51;15.40;99.90
20102;DHT22;10210;52.284;9.892;2023-04-01T12:48:17;15.20;99.90
20102;DHT22;10210;52.284;9.892;2023-04-01T12:51:20;15.20;99.90
20102;DHT22;10210;52.284;9.892;2023-04-01T12:54:14;15.00;99.90
20102;DHT22;10210;52.284;9.892;2023-04-01T12:57:20;15.00;99.90
20102;DHT22;10210;52.284;9.892;2023-04-01T13:09:01;14.70;99.90
20102;DHT22;10210;52.284;9.892;2023-04-01T13:12:19;14.70;99.90
20102;DHT22;10210;52.284;9.892;2023-04-01T13:18:18;14.60;99.90
20102;DHT22;10210;52.284;9.892;2023-04-01T13:21:30;14.60;99.90
20102;DHT22;10210;52.284;9.892;2023-04-01T13:32:50;14.60;99.90
20102;DHT22;10210;52.284;9.892;2023-04-01T13:35:53;14.50;99.90
20102;DHT22;10210;52.284;9.892;2023-04-01T13:41:38;14.50;99.90
20102;DHT22;10210;52.284;9.892;2023-04-01T13:51:09;14.60;99.90
20102;DHT22;10210;52.284;9.892;2023-04-01T13:57:16;14.60;99.90
20102;DHT22;10210;52.284;9.892;2023-04-01T14:06:37;14.60;99.90
20102;DHT22;10210;52.284;9.892;2023-04-01T14:09:28;14.60;99.90
20102;DHT22;10210;52.284;9.892;2023-04-01T14:15:02;14.70;99.90
20102;DHT22;10210;52.284;9.892;2023-04-01T14:18:04;14.70;99.90
20102;DHT22;10210;52.284;9.892;2023-04-01T14:21:17;14.80;99.90
20102;DHT22;10210;52.284;9.892;2023-04-01T14:32:36;14.70;99.90
20102;DHT22;10210;52.284;9.892;2023-04-01T14:45:24;14.30;99.90
20102;DHT22;10210;52.284;9.892;2023-04-01T14:51:02;14.10;99.90
20102;DHT22;10210;52.284;9.892;2023-04-01T14:53:38;14.00;99.90
20102;DHT22;10210;52.284;9.892;2023-04-01T14:56:11;13.90;99.90
20102;DHT22;10210;52.284;9.892;2023-04-01T14:58:57;13.90;99.90
20102;DHT22;10210;52.284;9.892;2023-04-01T15:04:46;13.80;99.90
20102;DHT22;10210;52.284;9.892;2023-04-01T15:09:59;13.60;99.90
20102;DHT22;10210;52.284;9.892;2023-04-01T15:15:29;13.50;99.90
20102;DHT22;10210;52.284;9.892;2023-04-01T15:18:17;13.50;99.90
20102;DHT22;10210;52.284;9.892;2023-04-01T15:20:59;13.40;99.90
20102;DHT22;10210;52.284;9.892;2023-04-01T15:41:07;13.00;99.90
20102;DHT22;10210;52.284;9.892;2023-04-01T15:46:44;12.90;99.90
20102;DHT22;10210;52.284;9.892;2023-04-01T15:52:15;12.90;99.90
20102;DHT22;10210;52.284;9.892;2023-04-01T15:55:25;12.80;99.90
20102;DHT22;10210;52.284;9.892;2023-04-01T15:58:21;12.70;99.90
20102;DHT22;10210;52.284;9.892;2023-04-01T16:09:58;12.50;99.90
20102;DHT22;10210;52.284;9.892;2023-04-01T16:25:33;12.40;99.90
20102;DHT22;10210;52.284;9.892;2023-04-01T16:28:38;12.40;99.90
20102;DHT22;10210;52.284;9.892;2023-04-01T16:32:12;12.30;99.90
20102;DHT22;10210;52.284;9.892;2023-04-01T16:34:54;12.30;99.90
20102;DHT22;10210;52.284;9.892;2023-04-01T16:37:36;12.30;99.90
20102;DHT22;10210;52.284;9.892;2023-04-01T16:40:35;12.20;99.90
20102;DHT22;10210;52.284;9.892;2023-04-01T16:43:18;12.20;99.90
20102;DHT22;10210;52.284;9.892;2023-04-01T16:51:48;12.10;99.90
20102;DHT22;10210;52.284;9.892;2023-04-01T16:57:53;12.00;99.90
20102;DHT22;10210;52.284;9.892;2023-04-01T17:00:30;12.00;99.90
20102;DHT22;10210;52.284;9.892;2023-04-01T17:05:39;11.90;99.90
20102;DHT22;10210;52.284;9.892;2023-04-01T17:08:40;11.80;99.90
20102;DHT22;10210;52.284;9.892;2023-04-01T17:11:18;11.80;99.90
20102;DHT22;10210;52.284;9.892;2023-04-01T17:13:58;11.80;99.90
20102;DHT22;10210;52.284;9.892;2023-04-01T17:16:55;11.70;99.90
20102;DHT22;10210;52.284;9.892;2023-04-01T17:22:47;11.70;99.90
20102;DHT22;10210;52.284;9.892;2023-04-01T17:25:58;11.60;99.90
20102;DHT22;10210;52.284;9.892;2023-04-01T17:28:41;11.60;99.90
20102;DHT22;10210;52.284;9.892;2023-04-01T17:37:20;11.40;99.90
20102;DHT22;10210;52.284;9.892;2023-04-01T17:43:12;11.30;99.90
20102;DHT22;10210;52.284;9.892;2023-04-01T17:45:54;11.30;99.90
20102;DHT22;10210;52.284;9.892;2023-04-01T17:48:24;11.30;99.90
20102;DHT22;10210;52.284;9.892;2023-04-01T17:51:48;11.30;99.90
20102;DHT22;10210;52.284;9.892;2023-04-01T17:58:00;11.20;99.90
20102;DHT22;10210;52.284;9.892;2023-04-01T18:01:08;11.20;99.90
20102;DHT22;10210;52.284;9.892;2023-04-01T18:03:55;11.10;99.90
20102;DHT22;10210;52.284;9.892;2023-04-01T18:09:39;11.00;99.90
20102;DHT22;10210;52.284;9.892;2023-04-01T18:12:54;10.90;99.90
20102;DHT22;10210;52.284;9.892;2023-04-01T18:15:44;10.90;99.90
20102;DHT22;10210;52.284;9.892;2023-04-01T18:21:41;10.90;99.90
20102;DHT22;10210;52.284;9.892;2023-04-01T18:24:35;10.80;99.90
20102;DHT22;10210;52.284;9.892;2023-04-01T18:32:53;10.70;99.90
20102;DHT22;10210;52.284;9.892;2023-04-01T18:36:19;10.70;99.90
20102;DHT22;10210;52.284;9.892;2023-04-01T18:41:34;10.60;99.90
20102;DHT22;10210;52.284;9.892;2023-04-01T18:47:30;10.50;99.90
20102;DHT22;10210;52.284;9.892;2023-04-01T18:53:39;10.50;99.90
20102;DHT22;10210;52.284;9.892;2023-04-01T18:56:14;10.50;99.90
20102;DHT22;10210;52.284;9.892;2023-04-01T18:59:10;10.50;99.90
20102;DHT22;10210;52.284;9.892;2023-04-01T19:04:39;10.40;99.90
20102;DHT22;10210;52.284;9.892;2023-04-01T19:15:44;10.40;99.90
20102;DHT22;10210;52.284;9.892;2023-04-01T19:18:32;10.40;99.90
20102;DHT22;10210;52.284;9.892;2023-04-01T19:21:16;10.40;99.90
20102;DHT22;10210;52.284;9.892;2023-04-01T19:29:35;10.30;99.90
20102;DHT22;10210;52.284;9.892;2023-04-01T19:38:40;10.20;99.90
20102;DHT22;10210;52.284;9.892;2023-04-01T19:56:12;9.90;99.90
20102;DHT22;10210;52.284;9.892;2023-04-01T20:04:29;9.80;99.90
20102;DHT22;10210;52.284;9.892;2023-04-01T20:07:24;9.80;99.90
20102;DHT22;10210;52.284;9.892;2023-04-01T20:10:10;9.80;99.90
20102;DHT22;10210;52.284;9.892;2023-04-01T20:12:56;9.80;99.90
20102;DHT22;10210;52.284;9.892;2023-04-01T20:15:33;9.70;99.90
20102;DHT22;10210;52.284;9.892;2023-04-01T20:18:20;9.70;99.90
20102;DHT22;10210;52.284;9.892;2023-04-01T20:21:01;9.70;99.90
20102;DHT22;10210;52.284;9.892;2023-04-01T20:23:45;9.70;99.90
20102;DHT22;10210;52.284;9.892;2023-04-01T20:26:24;9.70;99.90
20102;DHT22;10210;52.284;9.892;2023-04-01T20:29:02;9.70;99.90
20102;DHT22;10210;52.284;9.892;2023-04-01T20:31:40;9.70;99.90
20102;DHT22;10210;52.284;9.892;2023-04-01T20:38:04;9.60;99.90
20102;DHT22;10210;52.284;9.892;2023-04-01T20:43:30;9.60;99.90
20102;DHT22;10210;52.284;9.892;2023-04-01T20:49:39;9.50;99.90
20102;DHT22;10210;52.284;9.892;2023-04-01T20:57:34;9.40;99.90
20102;DHT22;10210;52.284;9.892;2023-04-01T21:00:40;9.40;99.90
20102;DHT22;10210;52.284;9.892;2023-04-01T21:03:37;9.40;99.90
20102;DHT22;10210;52.284;9.892;2023-04-01T21:12:35;9.30;99.90
20102;DHT22;10210;52.284;9.892;2023-04-01T21:15:21;9.30;99.90
20102;DHT22;10210;52.284;9.892;2023-04-01T21:27:09;9.20;99.90
20102;DHT22;10210;52.284;9.892;2023-04-01T21:39:32;9.00;99.90
20102;DHT22;10210;52.284;9.892;2023-04-01T21:52:13;8.90;99.90
20102;DHT22;10210;52.284;9.892;2023-04-01T22:07:11;8.80;99.90
20102;DHT22;10210;52.284;9.892;2023-04-01T22:10:03;8.80;99.90
20102;DHT22;10210;52.284;9.892;2023-04-01T22:15:48;8.70;99.90
20102;DHT22;10210;52.284;9.892;2023-04-01T22:18:49;8.70;99.90
20102;DHT22;10210;52.284;9.892;2023-04-01T22:21:41;8.70;99.90
20102;DHT22;10210;52.284;9.892;2023-04-01T22:27:03;8.70;99.90
20102;DHT22;10210;52.284;9.892;2023-04-01T22:30:00;8.70;99.90
20102;DHT22;10210;52.284;9.892;2023-04-01T22:32:43;8.70;99.90
20102;DHT22;10210;52.284;9.892;2023-04-01T22:38:14;8.70;99.90
20102;DHT22;10210;52.284;9.892;2023-04-01T22:44:05;8.70;99.90
20102;DHT22;10210;52.284;9.892;2023-04-01T22:47:06;8.60;99.90
20102;DHT22;10210;52.284;9.892;2023-04-01T22:49:57;8.60;99.90
20102;DHT22;10210;52.284;9.892;2023-04-01T22:52:38;8.60;99.90
20102;DHT22;10210;52.284;9.892;2023-04-01T22:55:21;8.50;99.90
20102;DHT22;10210;52.284;9.892;2023-04-01T22:58:09;8.50;99.90
20102;DHT22;10210;52.284;9.892;2023-04-01T23:00:43;8.50;99.90
20102;DHT22;10210;52.284;9.892;2023-04-01T23:03:28;8.50;99.90
20102;DHT22;10210;52.284;9.892;2023-04-01T23:06:01;8.40;99.90
20102;DHT22;10210;52.284;9.892;2023-04-01T23:12:12;8.40;99.90
20102;DHT22;10210;52.284;9.892;2023-04-01T23:15:10;8.40;99.90
20102;DHT22;10210;52.284;9.892;2023-04-01T23:17:58;8.40;99.90
20102;DHT22;10210;52.284;9.892;2023-04-01T23:20:53;8.30;99.90
20102;DHT22;10210;52.284;9.892;2023-04-01T23:23:39;8.20;99.90
20102;DHT22;10210;52.284;9.892;2023-04-01T23:26:30;8.20;99.90
20102;DHT22;10210;52.284;9.892;2023-04-01T23:28:58;8.10;99.90
20102;DHT22;10210;52.284;9.892;2023-04-01T23:31:36;8.10;99.90
20102;DHT22;10210;52.284;9.892;2023-04-01T23:36:52;7.90;99.90
20102;DHT22;10210;52.284;9.892;2023-04-01T23:39:30;7.90;99.90
20102;DHT22;10210;52.284;9.892;2023-04-01T23:42:21;7.90;99.90
20102;DHT22;10210;52.284;9.892;2023-04-01T23:44:53;7.80;99.90
20102;DHT22;10210;52.284;9.892;2023-04-01T23:47:29;7.80;99.90
20102;DHT22;10210;52.284;9.892;2023-04-01T23:50:00;7.80;99.90
20102;DHT22;10210;52.284;9.892;2023-04-01T23:52:35;7.80;99.90
20102;DHT22;10210;52.284;9.892;2023-04-01T23:55:14;7.80;99.90
